createdAt,value
2022-10-05T00:01:01.228Z,83.76
2022-10-05T00:03:40.328Z,84.09
2022-10-05T00:06:09.271Z,83.54
2022-10-05T00:08:36.107Z,83.86
2022-10-05T00:11:02.643Z,84.15
2022-10-05T00:13:30.516Z,84.01
2022-10-05T00:16:12.250Z,84.27
2022-10-05T00:18:39.503Z,84.01
2022-10-05T00:21:18.301Z,83.96
2022-10-05T00:23:44.660Z,83.98
2022-10-05T00:26:21.554Z,84.19
2022-10-05T00:28:48.708Z,84.23
2022-10-05T00:31:19.877Z,84.33
2022-10-05T00:33:47.203Z,83.65
2022-10-05T00:36:14.449Z,83.93
2022-10-05T00:38:41.298Z,83.83
2022-10-05T00:41:32.385Z,84.08
2022-10-05T00:44:10.195Z,84.21
2022-10-05T00:46:57.592Z,84.89
2022-10-05T00:49:49.796Z,84.69
2022-10-05T00:52:53.120Z,84.66
2022-10-05T00:55:25.263Z,84.57
2022-10-05T00:58:07.958Z,84.57
2022-10-05T01:00:47.130Z,84.56
2022-10-05T01:03:26.069Z,84.44
2022-10-05T01:06:16.534Z,84.77
2022-10-05T01:09:15.179Z,85.37
2022-10-05T01:12:16.378Z,85.32
2022-10-05T01:14:55.869Z,84.99
2022-10-05T01:17:39.995Z,85.13
2022-10-05T01:20:15.040Z,85.03
2022-10-05T01:23:05.474Z,85.16
2022-10-05T01:25:51.429Z,85.18
2022-10-05T01:28:30.142Z,85.48
2022-10-05T01:31:12.241Z,85.59
2022-10-05T01:34:16.403Z,85.64
2022-10-05T01:37:01.994Z,85.67
2022-10-05T01:39:40.474Z,85.69
2022-10-05T01:42:12.898Z,85.64
2022-10-05T01:44:51.662Z,85.62
2022-10-05T01:47:45.729Z,85.92
2022-10-05T01:50:44.112Z,86.06
2022-10-05T01:53:39.916Z,86.50
2022-10-05T01:56:28.031Z,87.20
2022-10-05T01:59:18.763Z,87.88
2022-10-05T02:01:53.981Z,88.05
2022-10-05T02:04:56.878Z,88.30
2022-10-05T02:07:28.799Z,88.46
2022-10-05T02:10:01.049Z,88.95
2022-10-05T02:12:30.815Z,88.78
2022-10-05T02:15:07.238Z,89.04
2022-10-05T02:17:42.125Z,89.42
2022-10-05T02:20:13.763Z,89.52
2022-10-05T02:22:45.887Z,89.43
2022-10-05T02:25:23.257Z,89.44
2022-10-05T02:28:01.082Z,89.71
2022-10-05T02:30:31.406Z,89.50
2022-10-05T02:33:05.622Z,89.37
2022-10-05T02:35:32.160Z,89.29
2022-10-05T02:38:37.536Z,89.56
2022-10-05T02:41:27.683Z,89.81
2022-10-05T02:44:20.345Z,89.85
2022-10-05T02:47:11.250Z,89.53
2022-10-05T02:49:40.340Z,89.35
2022-10-05T02:52:14.293Z,89.67
2022-10-05T02:55:02.368Z,89.17
2022-10-05T02:57:36.163Z,89.37
2022-10-05T03:00:11.610Z,89.48
2022-10-05T03:02:51.162Z,89.09
2022-10-05T03:05:23.530Z,89.17
2022-10-05T03:08:01.168Z,89.20
2022-10-05T03:10:42.529Z,89.01
2022-10-05T03:13:26.217Z,89.21
2022-10-05T03:16:17.286Z,89.18
2022-10-05T03:18:52.682Z,89.44
2022-10-05T03:21:34.132Z,89.26
2022-10-05T03:24:30.889Z,89.23
2022-10-05T03:27:15.413Z,89.14
2022-10-05T03:29:57.495Z,88.89
2022-10-05T03:33:02.099Z,88.69
2022-10-05T03:35:48.909Z,88.68
2022-10-05T03:38:31.332Z,88.32
2022-10-05T03:41:12.810Z,87.87
2022-10-05T03:44:04.091Z,88.12
2022-10-05T03:46:36.909Z,88.07
2022-10-05T03:49:18.418Z,87.98
2022-10-05T03:51:51.179Z,87.58
2022-10-05T03:54:27.062Z,88.09
2022-10-05T03:56:56.979Z,87.32
2022-10-05T03:59:32.709Z,87.23
2022-10-05T04:02:02.155Z,86.92
2022-10-05T04:04:38.466Z,87.13
2022-10-05T04:07:11.554Z,87.11
2022-10-05T04:09:42.991Z,87.17
2022-10-05T04:12:22.431Z,86.67
2022-10-05T04:15:02.163Z,86.14
2022-10-05T04:17:37.686Z,85.82
2022-10-05T04:20:23.009Z,84.88
2022-10-05T04:23:16.586Z,85.06
2022-10-05T04:25:48.643Z,84.84
2022-10-05T04:28:36.798Z,84.85
2022-10-05T04:31:05.368Z,85.09
2022-10-05T04:33:32.342Z,85.13
2022-10-05T04:36:15.653Z,84.76
2022-10-05T04:39:22.298Z,85.14
2022-10-05T04:41:59.617Z,84.71
2022-10-05T04:44:42.810Z,85.06
2022-10-05T04:47:47.538Z,84.92
2022-10-05T04:50:42.807Z,84.68
2022-10-05T04:53:28.947Z,84.82
2022-10-05T04:56:05.474Z,84.40
2022-10-05T04:58:47.027Z,84.24
2022-10-05T05:01:47.919Z,84.27
2022-10-05T05:04:32.127Z,84.15
2022-10-05T05:07:08.689Z,84.35
2022-10-05T05:09:44.087Z,84.59
2022-10-05T05:12:26.875Z,84.59
2022-10-05T05:15:24.859Z,84.53
2022-10-05T05:18:29.789Z,84.26
2022-10-05T05:21:05.480Z,83.91
2022-10-05T05:23:48.139Z,83.75
2022-10-05T05:26:20.543Z,83.64
2022-10-05T05:28:58.434Z,84.03
2022-10-05T05:31:37.943Z,84.08
2022-10-05T05:34:22.424Z,84.32
2022-10-05T05:37:13.558Z,84.13
2022-10-05T05:39:48.934Z,84.47
2022-10-05T05:42:17.967Z,83.86
2022-10-05T05:44:53.447Z,84.56
2022-10-05T05:47:28.470Z,84.77
2022-10-05T05:50:19.142Z,84.64
2022-10-05T05:52:56.775Z,84.55
2022-10-05T05:55:30.328Z,84.69
2022-10-05T05:58:11.939Z,84.66
2022-10-05T06:00:46.518Z,85.06
2022-10-05T06:03:22.735Z,84.95
2022-10-05T06:05:54.423Z,85.30
2022-10-05T06:08:39.764Z,85.22
2022-10-05T06:11:29.983Z,85.54
2022-10-05T06:14:01.670Z,85.52
2022-10-05T06:16:46.353Z,85.60
2022-10-05T06:19:19.471Z,85.48
2022-10-05T06:22:07.670Z,85.41
2022-10-05T06:24:42.790Z,85.50
2022-10-05T06:27:21.354Z,85.43
2022-10-05T06:30:13.320Z,85.67
2022-10-05T06:33:02.903Z,85.46
2022-10-05T06:36:16.444Z,85.73
2022-10-05T06:39:21.455Z,85.71
2022-10-05T06:42:10.424Z,86.04
2022-10-05T06:44:48.994Z,85.88
2022-10-05T06:47:27.155Z,86.13
2022-10-05T06:50:18.869Z,85.34
2022-10-05T06:52:58.596Z,85.25
2022-10-05T06:55:34.558Z,84.74
2022-10-05T06:58:44.220Z,84.97
2022-10-05T07:01:15.214Z,84.70
2022-10-05T07:04:15.621Z,85.25
2022-10-05T07:06:50.982Z,85.47
2022-10-05T07:09:31.881Z,85.38
2022-10-05T07:12:16.976Z,85.45
2022-10-05T07:14:47.451Z,85.15
2022-10-05T07:17:34.671Z,85.29
2022-10-05T07:20:21.447Z,85.16
2022-10-05T07:23:04.506Z,85.22
2022-10-05T07:25:42.852Z,84.85
2022-10-05T07:28:47.961Z,85.01
2022-10-05T07:31:33.058Z,85.06
2022-10-05T07:34:15.233Z,85.00
2022-10-05T07:37:12.858Z,84.54
2022-10-05T07:40:00.431Z,84.32
2022-10-05T07:42:30.423Z,83.99
2022-10-05T07:45:28.482Z,84.55
2022-10-05T07:48:06.772Z,84.68
2022-10-05T07:50:46.893Z,84.69
2022-10-05T07:53:16.186Z,84.55
2022-10-05T07:56:07.144Z,84.58
2022-10-05T07:58:58.034Z,84.43
2022-10-05T08:01:29.479Z,84.25
2022-10-05T08:04:00.800Z,84.33
2022-10-05T08:06:30.137Z,84.14
2022-10-05T08:09:32.995Z,84.19
2022-10-05T08:12:02.200Z,83.12
2022-10-05T08:14:33.760Z,83.34
2022-10-05T08:17:06.034Z,83.35
2022-10-05T08:19:42.780Z,83.20
2022-10-05T08:22:13.853Z,82.95
2022-10-05T08:25:01.234Z,83.01
2022-10-05T08:27:56.868Z,82.94
2022-10-05T08:30:23.735Z,82.85
2022-10-05T08:33:00.347Z,82.59
2022-10-05T08:35:44.894Z,83.09
2022-10-05T08:38:16.587Z,82.62
2022-10-05T08:41:10.941Z,82.54
2022-10-05T08:44:00.539Z,82.52
2022-10-05T08:46:39.176Z,81.72
2022-10-05T08:49:38.960Z,82.23
2022-10-05T08:52:20.880Z,82.23
2022-10-05T08:55:11.695Z,82.37
2022-10-05T08:58:06.496Z,81.80
2022-10-05T09:00:57.791Z,81.81
2022-10-05T09:03:56.354Z,82.30
2022-10-05T09:07:05.871Z,82.20
2022-10-05T09:10:02.560Z,80.77
2022-10-05T09:13:11.058Z,81.03
2022-10-05T09:15:56.415Z,80.64
2022-10-05T09:18:53.559Z,80.76
2022-10-05T09:21:51.843Z,80.16
2022-10-05T09:24:28.389Z,79.55
2022-10-05T09:27:08.854Z,78.86
2022-10-05T09:30:10.627Z,78.66
2022-10-05T09:33:09.253Z,78.85
2022-10-05T09:36:19.169Z,78.19
2022-10-05T09:39:14.311Z,78.28
2022-10-05T09:42:10.653Z,77.75
2022-10-05T09:44:55.414Z,78.65
2022-10-05T09:47:36.960Z,77.92
2022-10-05T09:50:25.378Z,77.35
2022-10-05T09:52:56.040Z,78.14
2022-10-05T09:55:28.287Z,77.32
2022-10-05T09:58:07.168Z,76.89
2022-10-05T10:00:59.549Z,76.65
2022-10-05T10:04:37.410Z,77.22
2022-10-05T10:07:21.434Z,76.56
2022-10-05T10:10:29.172Z,77.23
2022-10-05T10:13:32.680Z,76.37
2022-10-05T10:16:07.336Z,76.00
2022-10-05T10:19:20.951Z,77.37
2022-10-05T10:22:17.755Z,76.79
2022-10-05T10:25:19.109Z,77.11
2022-10-05T10:28:22.770Z,76.91
2022-10-05T10:31:26.233Z,77.17
2022-10-05T10:34:37.703Z,77.47
2022-10-05T10:37:25.437Z,77.30
2022-10-05T10:40:20.244Z,77.21
2022-10-05T10:42:56.176Z,77.22
2022-10-05T10:45:28.606Z,77.73
2022-10-05T10:48:01.476Z,76.92
2022-10-05T10:51:02.030Z,77.94
2022-10-05T10:53:28.303Z,78.08
2022-10-05T10:56:09.835Z,78.10
2022-10-05T10:59:11.658Z,77.94
2022-10-05T11:02:00.179Z,76.89
2022-10-05T11:04:48.191Z,76.92
2022-10-05T11:07:58.911Z,77.92
2022-10-05T11:10:44.013Z,78.38
2022-10-05T11:13:29.167Z,77.84
2022-10-05T11:16:12.422Z,78.03
2022-10-05T11:18:58.150Z,77.58
2022-10-05T11:21:38.223Z,76.94
2022-10-05T11:24:28.950Z,77.48
2022-10-05T11:27:08.380Z,77.77
2022-10-05T11:29:59.368Z,77.07
2022-10-05T11:32:46.415Z,77.22
2022-10-05T11:35:29.071Z,77.23
2022-10-05T11:38:10.776Z,76.83
2022-10-05T11:41:05.435Z,77.20
2022-10-05T11:43:42.604Z,76.80
2022-10-05T11:46:31.038Z,76.68
2022-10-05T11:49:09.606Z,76.63
2022-10-05T11:51:51.479Z,76.22
2022-10-05T11:54:27.846Z,74.70
2022-10-05T11:57:06.014Z,75.90
2022-10-05T11:59:49.084Z,74.63
2022-10-05T12:02:53.234Z,74.59
2022-10-05T12:05:24.670Z,74.13
2022-10-05T12:08:06.546Z,72.15
2022-10-05T12:10:52.121Z,73.22
2022-10-05T12:13:34.834Z,72.63
2022-10-05T12:16:14.399Z,72.18
2022-10-05T12:18:57.115Z,73.02
2022-10-05T12:21:41.240Z,73.21
2022-10-05T12:24:23.337Z,70.00
2022-10-05T12:26:58.680Z,71.57
2022-10-05T12:29:44.295Z,68.35
2022-10-05T12:32:19.983Z,70.50
2022-10-05T12:35:11.512Z,70.40
2022-10-05T12:37:52.761Z,70.41
2022-10-05T12:40:34.133Z,71.05
2022-10-05T12:43:11.393Z,69.09
2022-10-05T12:45:59.579Z,69.94
2022-10-05T12:49:13.870Z,70.36
2022-10-05T12:51:55.009Z,68.91
2022-10-05T12:54:50.944Z,70.76
2022-10-05T12:57:32.247Z,69.61
2022-10-05T13:00:22.864Z,70.50
2022-10-05T13:03:02.135Z,70.02
2022-10-05T13:05:52.366Z,71.31
2022-10-05T13:08:46.528Z,72.41
2022-10-05T13:11:21.078Z,72.11
2022-10-05T13:14:11.333Z,73.12
2022-10-05T13:16:52.494Z,72.72
2022-10-05T13:19:44.503Z,72.53
2022-10-05T13:22:34.313Z,73.72
2022-10-05T13:25:18.526Z,73.92
2022-10-05T13:27:59.768Z,73.44
2022-10-05T13:30:26.275Z,73.95
2022-10-05T13:32:59.836Z,74.31
2022-10-05T13:35:54.061Z,74.93
2022-10-05T13:38:38.347Z,73.88
2022-10-05T13:41:24.442Z,74.12
2022-10-05T13:44:13.775Z,74.28
2022-10-05T13:46:49.245Z,73.13
2022-10-05T13:49:26.435Z,73.24
2022-10-05T13:52:00.272Z,71.19
2022-10-05T13:54:31.289Z,71.34
2022-10-05T13:57:18.404Z,72.07
2022-10-05T13:59:57.342Z,72.76
2022-10-05T14:02:30.208Z,71.53
2022-10-05T14:05:31.871Z,71.37
2022-10-05T14:08:04.110Z,71.11
2022-10-05T14:10:43.529Z,69.84
2022-10-05T14:13:13.384Z,71.38
2022-10-05T14:15:42.248Z,68.85
2022-10-05T14:18:29.633Z,69.87
2022-10-05T14:21:03.769Z,70.23
2022-10-05T14:23:30.623Z,69.68
2022-10-05T14:25:57.417Z,69.83
2022-10-05T14:28:28.387Z,69.33
2022-10-05T14:31:12.660Z,67.40
2022-10-05T14:33:39.710Z,68.79
2022-10-05T14:36:16.344Z,68.68
2022-10-05T14:38:57.705Z,69.70
2022-10-05T14:41:27.244Z,68.51
2022-10-05T14:44:08.512Z,69.62
2022-10-05T14:46:36.494Z,68.65
2022-10-05T14:49:21.926Z,69.94
2022-10-05T14:51:50.057Z,69.36
2022-10-05T14:54:25.246Z,70.03
2022-10-05T14:57:05.316Z,71.01
2022-10-05T15:00:03.851Z,70.79
2022-10-05T15:03:07.460Z,70.22
2022-10-05T15:05:47.859Z,69.80
2022-10-05T15:08:26.704Z,69.60
2022-10-05T15:11:03.609Z,68.82
2022-10-05T15:13:34.208Z,68.83
2022-10-05T15:16:06.789Z,69.28
2022-10-05T15:19:04.281Z,70.53
2022-10-05T15:22:02.585Z,71.11
2022-10-05T15:24:43.298Z,70.15
2022-10-05T15:27:26.095Z,71.42
2022-10-05T15:30:18.098Z,71.37
2022-10-05T15:33:01.931Z,71.13
2022-10-05T15:35:47.951Z,71.04
2022-10-05T15:38:25.604Z,70.92
2022-10-05T15:41:19.790Z,71.59
2022-10-05T15:44:00.163Z,71.73
2022-10-05T15:47:03.007Z,72.67
2022-10-05T15:49:45.485Z,72.50
2022-10-05T15:52:24.527Z,72.40
2022-10-05T15:54:58.596Z,72.95
2022-10-05T15:57:50.413Z,73.27
2022-10-05T16:00:20.665Z,73.31
2022-10-05T16:03:14.671Z,73.15
2022-10-05T16:06:08.937Z,72.41
2022-10-05T16:09:13.176Z,72.45
2022-10-05T16:11:48.985Z,72.36
2022-10-05T16:14:49.174Z,71.74
2022-10-05T16:17:40.881Z,71.16
2022-10-05T16:20:52.080Z,71.28
2022-10-05T16:23:44.443Z,72.00
2022-10-05T16:26:22.572Z,71.56
2022-10-05T16:29:05.146Z,71.91
2022-10-05T16:31:46.997Z,71.73
2022-10-05T16:35:00.672Z,72.17
2022-10-05T16:37:45.230Z,71.87
2022-10-05T16:40:28.301Z,72.38
2022-10-05T16:43:02.584Z,72.05
2022-10-05T16:45:53.192Z,72.78
2022-10-05T16:48:26.533Z,72.77
2022-10-05T16:51:02.108Z,73.46
2022-10-05T16:53:43.945Z,73.30
2022-10-05T16:56:16.804Z,73.27
2022-10-05T16:58:45.831Z,73.30
2022-10-05T17:01:39.657Z,73.87
2022-10-05T17:04:19.697Z,73.76
2022-10-05T17:07:12.255Z,74.29
2022-10-05T17:09:45.592Z,74.19
2022-10-05T17:12:42.766Z,74.09
2022-10-05T17:15:29.170Z,74.46
2022-10-05T17:18:01.352Z,74.64
2022-10-05T17:20:42.954Z,74.59
2022-10-05T17:23:31.105Z,74.72
2022-10-05T17:26:27.999Z,75.08
2022-10-05T17:29:13.781Z,75.17
2022-10-05T17:32:00.684Z,75.16
2022-10-05T17:34:30.583Z,75.29
2022-10-05T17:37:14.765Z,75.26
2022-10-05T17:39:53.451Z,75.82
2022-10-05T17:42:29.074Z,76.11
2022-10-05T17:45:35.882Z,75.56
2022-10-05T17:48:12.180Z,75.42
2022-10-05T17:51:06.508Z,75.50
2022-10-05T17:54:03.437Z,75.96
2022-10-05T17:56:31.962Z,75.81
2022-10-05T17:59:06.752Z,76.05
2022-10-05T18:01:34.949Z,76.07
2022-10-05T18:04:13.379Z,76.01
2022-10-05T18:06:51.770Z,76.27
2022-10-05T18:09:30.858Z,76.31
2022-10-05T18:12:16.070Z,76.10
2022-10-05T18:14:57.088Z,76.26
2022-10-05T18:17:50.588Z,76.32
2022-10-05T18:20:29.451Z,76.02
2022-10-05T18:23:09.306Z,76.63
2022-10-05T18:25:51.790Z,76.60
2022-10-05T18:28:51.503Z,77.13
2022-10-05T18:31:37.736Z,76.91
2022-10-05T18:34:30.133Z,77.01
2022-10-05T18:37:21.451Z,76.90
2022-10-05T18:40:08.375Z,76.93
2022-10-05T18:43:19.270Z,76.96
2022-10-05T18:45:57.633Z,76.87
2022-10-05T18:48:36.930Z,76.83
2022-10-05T18:51:03.207Z,76.72
2022-10-05T18:53:42.364Z,76.95
2022-10-05T18:56:23.334Z,77.36
2022-10-05T18:59:02.228Z,77.36
2022-10-05T19:01:48.538Z,77.12
2022-10-05T19:04:31.646Z,77.30
2022-10-05T19:07:23.850Z,77.63
2022-10-05T19:10:02.508Z,77.79
2022-10-05T19:12:44.586Z,77.52
2022-10-05T19:15:27.863Z,77.61
2022-10-05T19:18:15.181Z,78.10
2022-10-05T19:20:47.345Z,78.11
2022-10-05T19:23:26.700Z,78.41
2022-10-05T19:26:12.007Z,78.35
2022-10-05T19:29:10.362Z,78.50
2022-10-05T19:32:17.401Z,78.12
2022-10-05T19:34:56.655Z,78.61
2022-10-05T19:37:37.329Z,78.67
2022-10-05T19:40:16.331Z,78.94
2022-10-05T19:43:14.550Z,79.18
2022-10-05T19:45:54.523Z,79.14
2022-10-05T19:48:40.351Z,79.96
2022-10-05T19:51:15.803Z,82.06
2022-10-05T19:53:47.116Z,84.10
2022-10-05T19:56:22.024Z,86.31
2022-10-05T19:58:49.841Z,87.64
2022-10-05T20:01:25.476Z,89.15
2022-10-05T20:03:53.599Z,89.00
2022-10-05T20:06:21.807Z,89.28
2022-10-05T20:08:50.761Z,89.57
2022-10-05T20:11:18.518Z,89.47
2022-10-05T20:14:09.318Z,90.56
2022-10-05T20:16:54.945Z,90.48
2022-10-05T20:19:52.059Z,91.25
2022-10-05T20:22:34.450Z,91.58
2022-10-05T20:25:06.138Z,91.99
2022-10-05T20:27:54.842Z,92.14
2022-10-05T20:30:27.430Z,92.03
2022-10-05T20:32:59.502Z,92.01
2022-10-05T20:35:29.613Z,92.46
2022-10-05T20:37:59.238Z,93.40
2022-10-05T20:40:28.854Z,94.06
2022-10-05T20:42:56.197Z,95.18
2022-10-05T20:45:22.534Z,94.57
2022-10-05T20:47:50.712Z,95.02
2022-10-05T20:50:17.612Z,95.47
2022-10-05T20:52:43.997Z,95.58
2022-10-05T20:55:11.952Z,96.16
2022-10-05T20:57:41.795Z,96.48
2022-10-05T21:00:10.319Z,96.99
2022-10-05T21:02:37.152Z,97.29
2022-10-05T21:05:04.536Z,97.39
2022-10-05T21:07:33.987Z,97.30
2022-10-05T21:10:01.163Z,97.26
2022-10-05T21:12:27.699Z,95.67
2022-10-05T21:14:54.072Z,93.95
2022-10-05T21:17:20.395Z,93.99
2022-10-05T21:19:47.261Z,93.86
2022-10-05T21:22:13.658Z,94.38
2022-10-05T21:24:40.958Z,94.67
2022-10-05T21:27:08.121Z,94.29
2022-10-05T21:29:35.640Z,94.45
2022-10-05T21:32:02.033Z,95.07
2022-10-05T21:34:28.781Z,95.19
2022-10-05T21:36:55.151Z,95.42
2022-10-05T21:39:21.882Z,95.70
2022-10-05T21:41:49.749Z,96.32
2022-10-05T21:44:16.563Z,96.28
2022-10-05T21:46:42.931Z,96.32
2022-10-05T21:49:09.785Z,96.74
2022-10-05T21:51:37.128Z,96.77
2022-10-05T21:54:11.138Z,96.61
2022-10-05T21:56:43.877Z,96.57
2022-10-05T21:59:13.059Z,96.85
2022-10-05T22:01:39.425Z,97.05
2022-10-05T22:04:06.822Z,97.67
2022-10-05T22:06:34.384Z,97.68
2022-10-05T22:09:00.851Z,97.91
2022-10-05T22:11:28.848Z,97.93
2022-10-05T22:14:01.972Z,98.27
2022-10-05T22:16:31.576Z,98.67
2022-10-05T22:18:58.858Z,98.65
2022-10-05T22:21:25.309Z,98.53
2022-10-05T22:23:51.629Z,99.20
2022-10-05T22:26:21.177Z,98.82
2022-10-05T22:28:48.374Z,98.80
2022-10-05T22:31:15.642Z,98.75
2022-10-05T22:33:41.980Z,99.04
2022-10-05T22:36:09.650Z,99.03
2022-10-05T22:38:36.526Z,99.20
2022-10-05T22:41:03.010Z,99.13
2022-10-05T22:43:29.414Z,99.09
2022-10-05T22:45:56.121Z,98.93
2022-10-05T22:48:22.573Z,99.33
2022-10-05T22:50:49.282Z,99.25
2022-10-05T22:53:15.932Z,99.14
2022-10-05T22:55:42.248Z,99.50
2022-10-05T22:58:08.555Z,99.43
2022-10-05T23:00:56.926Z,98.94
2022-10-05T23:03:21.255Z,99.16
2022-10-05T23:05:47.595Z,98.91
2022-10-05T23:08:13.943Z,98.42
2022-10-05T23:10:40.252Z,98.67
2022-10-05T23:13:07.270Z,98.99
2022-10-05T23:15:34.223Z,98.71
2022-10-05T23:18:00.668Z,99.07
2022-10-05T23:20:27.010Z,99.41
2022-10-05T23:22:53.720Z,99.19
2022-10-05T23:25:22.048Z,99.17
2022-10-05T23:27:48.426Z,99.46
2022-10-05T23:30:14.979Z,99.37
2022-10-05T23:32:43.102Z,99.13
2022-10-05T23:35:11.729Z,99.39
2022-10-05T23:37:43.659Z,99.28
2022-10-05T23:40:12.682Z,98.84
2022-10-05T23:42:42.703Z,98.87
2022-10-05T23:45:10.936Z,98.75
2022-10-05T23:47:38.256Z,98.35
2022-10-05T23:50:06.927Z,98.05
2022-10-05T23:52:34.080Z,97.77
2022-10-05T23:55:00.438Z,97.44
2022-10-05T23:57:26.737Z,97.64
2022-10-05T23:59:53.067Z,97.60
